Dublin, Virginia
Current Conditions -  °F | °C
As of 1:15 PM on Thursday 29 Jan 2015 (Local Time) from KPSK Reporting Station
Unknown Precip Unknown Precip  
Wind Chill: 37°   Ceiling: 5000
Heat Index: 37°   Visibility: 5mi
Dew Point: 29°   Wind: 0mph
Humidity: 73%   Direction: NA
Pressure: 30.08"   Gusts: NA
Location:  37.11°N, 80.69°W
Report Text: KPSK 291815Z AUTO 00000KT 5SM UP OVC050 03/M02 A3008 RMK AO2 P0003 T00251019
Loading
Personal Weather Stations






























Interactive Weather Map New forecast layout! Learn more

10-Day Weather Forecast

Advertisements
Track Severe Weather on mobile